Bullhead City Mohave Valley, Arizona
Current Conditions -  °F | °C
As of 1:56 AM on Friday 24 Oct 2014 (Local Time) from KEED Reporting Station
Clear Clear  
Wind Chill: 69°   Ceiling: Unl
Heat Index: 69°   Visibility: 10mi
Dew Point: 39°   Wind: 5mph
Humidity: 33%   Direction: 340°NNW
Pressure: 29.98"   Gusts: NA
Location:  34.91°N, 114.546°W
Report Text: KEED 240856Z AUTO 34004KT 10SM CLR 21/04 A2998 RMK AO2 SLP124 T02060039 53003
Loading
Personal Weather Stations






























Interactive Weather Map
Tropical Storm Tracking
New forecast layout! Learn more

10-Day Weather Forecast

Advertisements
Track Severe Weather on mobile